createdAt,value
2023-01-30T00:01:47.478Z,9.13
2023-01-30T00:04:17.319Z,8.40
2023-01-30T00:06:46.882Z,8.00
2023-01-30T00:09:15.843Z,8.45
2023-01-30T00:11:43.809Z,8.77
2023-01-30T00:14:11.765Z,9.18
2023-01-30T00:16:39.770Z,8.57
2023-01-30T00:19:07.790Z,9.25
2023-01-30T00:21:35.802Z,9.18
2023-01-30T00:24:05.459Z,9.45
2023-01-30T00:26:33.466Z,8.88
2023-01-30T00:29:01.635Z,9.20
2023-01-30T00:31:29.590Z,10.33
2023-01-30T00:33:57.538Z,10.27
2023-01-30T00:36:25.548Z,9.30
2023-01-30T00:38:53.493Z,9.20
2023-01-30T00:41:22.914Z,9.07
2023-01-30T00:44:08.264Z,9.10
2023-01-30T00:46:53.858Z,9.35
2023-01-30T00:49:21.907Z,9.43
2023-01-30T00:51:49.897Z,9.15
2023-01-30T00:54:17.878Z,8.13
2023-01-30T00:56:47.246Z,8.30
2023-01-30T00:59:15.267Z,9.05
2023-01-30T01:01:43.344Z,8.70
2023-01-30T01:04:11.868Z,8.07
2023-01-30T01:06:40.461Z,9.13
2023-01-30T01:09:08.677Z,9.45
2023-01-30T01:11:37.205Z,8.50
2023-01-30T01:14:07.882Z,7.90
2023-01-30T01:16:36.565Z,8.60
2023-01-30T01:19:05.636Z,7.20
2023-01-30T01:21:33.677Z,8.70
2023-01-30T01:24:02.191Z,7.68
2023-01-30T01:26:30.208Z,8.10
2023-01-30T01:28:58.987Z,8.27
2023-01-30T01:31:28.478Z,7.47
2023-01-30T01:33:56.548Z,7.25
2023-01-30T01:36:51.561Z,7.22
2023-01-30T01:39:12.643Z,6.90
2023-01-30T01:41:39.673Z,7.03
2023-01-30T01:44:10.112Z,6.20
2023-01-30T01:46:44.519Z,6.25
2023-01-30T01:49:18.040Z,6.60
2023-01-30T01:51:53.766Z,6.47
2023-01-30T01:54:28.709Z,5.30
2023-01-30T01:56:56.641Z,6.00
2023-01-30T01:59:28.974Z,6.60
2023-01-30T02:02:04.418Z,5.90
2023-01-30T02:04:50.986Z,5.95
2023-01-30T02:07:21.318Z,7.20
2023-01-30T02:09:50.078Z,6.28
2023-01-30T02:12:18.217Z,6.28
2023-01-30T02:14:46.523Z,6.87
2023-01-30T02:17:15.897Z,6.05
2023-01-30T02:19:51.888Z,5.75
2023-01-30T02:23:00.021Z,5.50
2023-01-30T02:25:57.394Z,6.10
2023-01-30T02:28:49.882Z,5.75
2023-01-30T02:31:33.847Z,5.95
2023-01-30T02:34:23.131Z,5.50
2023-01-30T02:37:02.390Z,5.05
2023-01-30T02:39:39.467Z,5.50
2023-01-30T02:42:15.738Z,5.43
2023-01-30T02:44:51.736Z,5.50
2023-01-30T02:47:26.920Z,6.50
2023-01-30T02:50:00.729Z,6.20
2023-01-30T02:52:30.327Z,6.10
2023-01-30T02:54:58.347Z,5.78
2023-01-30T02:57:27.774Z,6.68
2023-01-30T03:00:00.100Z,5.72
2023-01-30T03:02:52.029Z,6.22
2023-01-30T03:05:38.076Z,5.50
2023-01-30T03:08:18.733Z,6.10
2023-01-30T03:10:55.874Z,6.00
2023-01-30T03:13:30.645Z,5.90
2023-01-30T03:16:04.852Z,5.40
2023-01-30T03:18:34.295Z,6.10
2023-01-30T03:21:05.956Z,5.85
2023-01-30T03:23:33.960Z,6.38
2023-01-30T03:26:04.187Z,6.40
2023-01-30T03:28:33.182Z,5.53
2023-01-30T03:31:01.207Z,6.30
2023-01-30T03:33:29.722Z,5.30
2023-01-30T03:35:59.139Z,5.50
2023-01-30T03:38:27.184Z,5.80
2023-01-30T03:40:55.347Z,5.72
2023-01-30T03:43:23.315Z,4.72
2023-01-30T03:45:51.309Z,5.78
2023-01-30T03:48:19.307Z,7.03
2023-01-30T03:50:47.365Z,5.80
2023-01-30T03:53:16.707Z,5.13
2023-01-30T03:55:45.680Z,5.20
2023-01-30T03:58:13.597Z,5.30
2023-01-30T04:00:41.555Z,5.40
2023-01-30T04:03:09.534Z,5.10
2023-01-30T04:05:37.559Z,5.60
2023-01-30T04:08:06.298Z,5.22
2023-01-30T04:10:35.585Z,4.90
2023-01-30T04:13:03.502Z,4.65
2023-01-30T04:15:31.496Z,5.13
2023-01-30T04:17:59.509Z,5.15
2023-01-30T04:20:27.429Z,4.85
2023-01-30T04:22:56.361Z,4.60
2023-01-30T04:25:24.454Z,5.50
2023-01-30T04:27:53.792Z,5.33
2023-01-30T04:30:21.944Z,5.10
2023-01-30T04:32:49.869Z,4.13
2023-01-30T04:35:18.346Z,5.22
2023-01-30T04:37:46.471Z,4.67
2023-01-30T04:40:14.653Z,4.37
2023-01-30T04:42:42.719Z,3.90
2023-01-30T04:45:12.691Z,4.43
2023-01-30T04:47:40.856Z,4.70
2023-01-30T04:50:10.294Z,3.50
2023-01-30T04:52:39.838Z,3.90
2023-01-30T04:55:08.468Z,4.10
2023-01-30T04:57:36.394Z,3.67
2023-01-30T05:00:05.152Z,3.75
2023-01-30T05:02:34.552Z,4.90
2023-01-30T05:05:02.680Z,4.40
2023-01-30T05:07:30.645Z,4.10
2023-01-30T05:09:58.660Z,3.88
2023-01-30T05:12:26.635Z,4.20
2023-01-30T05:14:54.590Z,4.18
2023-01-30T05:17:22.583Z,4.83
2023-01-30T05:19:51.947Z,4.40
2023-01-30T05:22:20.139Z,4.97
2023-01-30T05:24:48.487Z,5.20
2023-01-30T05:27:16.661Z,5.22
2023-01-30T05:29:44.646Z,5.28
2023-01-30T05:32:15.008Z,5.00
2023-01-30T05:34:43.000Z,4.47
2023-01-30T05:37:12.834Z,4.50
2023-01-30T05:39:41.061Z,4.80
2023-01-30T05:42:09.085Z,5.55
2023-01-30T05:44:37.066Z,6.13
2023-01-30T05:47:05.126Z,4.57
2023-01-30T05:49:33.145Z,5.03
2023-01-30T05:52:01.073Z,4.85
2023-01-30T05:54:30.475Z,5.72
2023-01-30T05:56:58.448Z,5.53
2023-01-30T05:59:26.410Z,5.55
2023-01-30T06:01:54.369Z,6.95
2023-01-30T06:04:22.505Z,5.63
2023-01-30T06:06:51.243Z,5.60
2023-01-30T06:09:19.431Z,5.63
2023-01-30T06:11:48.746Z,5.77
2023-01-30T06:14:16.709Z,5.93
2023-01-30T06:16:44.707Z,5.72
2023-01-30T06:19:12.812Z,6.70
2023-01-30T06:21:40.803Z,6.43
2023-01-30T06:24:09.098Z,5.75
2023-01-30T06:26:37.157Z,5.90
2023-01-30T06:29:06.643Z,5.15
2023-01-30T06:31:34.675Z,6.40
2023-01-30T06:34:02.675Z,5.80
2023-01-30T06:36:30.607Z,5.28
2023-01-30T06:38:58.634Z,6.00
2023-01-30T06:41:26.602Z,6.05
2023-01-30T06:43:55.591Z,5.72
2023-01-30T06:46:25.063Z,4.70
2023-01-30T06:48:53.013Z,4.85
2023-01-30T06:51:20.999Z,5.30
2023-01-30T06:53:49.938Z,5.60
2023-01-30T06:56:19.314Z,6.30
2023-01-30T06:58:47.263Z,6.03
2023-01-30T07:01:15.634Z,6.03
2023-01-30T07:03:45.020Z,5.30
2023-01-30T07:06:13.034Z,5.25
2023-01-30T07:08:41.841Z,5.50
2023-01-30T07:11:09.787Z,5.40
2023-01-30T07:13:37.778Z,5.00
2023-01-30T07:16:06.196Z,5.80
2023-01-30T07:18:34.212Z,4.70
2023-01-30T07:21:03.544Z,5.38
2023-01-30T07:23:31.541Z,5.75
2023-01-30T07:25:59.497Z,5.47
2023-01-30T07:28:27.471Z,5.70
2023-01-30T07:30:55.459Z,5.60
2023-01-30T07:33:23.479Z,5.57
2023-01-30T07:35:51.431Z,5.20
2023-01-30T07:38:20.795Z,4.97
2023-01-30T07:40:48.815Z,5.47
2023-01-30T07:43:16.886Z,5.07
2023-01-30T07:45:46.915Z,5.70
2023-01-30T07:48:16.479Z,6.13
2023-01-30T07:50:45.427Z,5.55
2023-01-30T07:53:15.930Z,5.40
2023-01-30T07:55:45.673Z,5.20
2023-01-30T07:58:15.452Z,5.43
2023-01-30T08:00:43.580Z,4.60
2023-01-30T08:03:14.370Z,5.03
2023-01-30T08:05:42.569Z,5.68
2023-01-30T08:08:10.695Z,6.90
2023-01-30T08:10:38.715Z,5.13
2023-01-30T08:13:08.073Z,5.73
2023-01-30T08:15:36.015Z,6.30
2023-01-30T08:18:04.008Z,5.10
2023-01-30T08:20:32.001Z,5.40
2023-01-30T08:23:00.652Z,5.93
2023-01-30T08:25:29.053Z,6.30
2023-01-30T08:27:57.479Z,6.00
2023-01-30T08:30:26.914Z,6.50
2023-01-30T08:32:55.023Z,6.50
2023-01-30T08:35:23.028Z,5.55
2023-01-30T08:37:51.010Z,5.53
2023-01-30T08:40:19.470Z,5.70
2023-01-30T08:42:47.731Z,6.70
2023-01-30T08:45:15.877Z,6.70
2023-01-30T08:47:45.233Z,6.15
2023-01-30T08:50:13.432Z,5.97
2023-01-30T08:52:41.365Z,6.05
2023-01-30T08:55:10.436Z,6.25
2023-01-30T08:57:38.487Z,5.20
2023-01-30T09:00:07.622Z,6.80
2023-01-30T09:02:35.623Z,5.80
2023-01-30T09:05:05.510Z,6.20
2023-01-30T09:07:34.113Z,5.50
2023-01-30T09:10:02.059Z,5.10
2023-01-30T09:12:30.025Z,5.45
2023-01-30T09:15:00.406Z,5.40
2023-01-30T09:17:28.403Z,5.60
2023-01-30T09:19:56.386Z,5.75
2023-01-30T09:22:28.712Z,6.50
2023-01-30T09:24:56.671Z,6.00
2023-01-30T09:27:24.740Z,5.20
2023-01-30T09:29:52.773Z,5.68
2023-01-30T09:32:20.756Z,5.47
2023-01-30T09:34:48.835Z,5.70
2023-01-30T09:37:16.948Z,6.10
2023-01-30T09:39:46.308Z,5.90
2023-01-30T09:42:35.934Z,5.20
2023-01-30T09:45:34.159Z,5.17
2023-01-30T09:48:12.041Z,5.17
2023-01-30T09:51:00.234Z,6.20
2023-01-30T09:53:37.056Z,5.80
2023-01-30T09:56:07.323Z,5.82
2023-01-30T09:58:46.807Z,5.30
2023-01-30T10:01:22.251Z,4.90
2023-01-30T10:04:02.792Z,5.07
2023-01-30T10:06:32.950Z,5.85
2023-01-30T10:09:08.261Z,5.70
2023-01-30T10:11:47.999Z,5.47
2023-01-30T10:14:25.922Z,5.90
2023-01-30T10:17:02.289Z,5.93
2023-01-30T10:20:00.247Z,6.03
2023-01-30T10:22:42.524Z,6.43
2023-01-30T10:25:25.032Z,5.00
2023-01-30T10:27:58.718Z,5.47
2023-01-30T10:30:26.857Z,6.20
2023-01-30T10:33:00.044Z,6.50
2023-01-30T10:35:33.134Z,6.00
2023-01-30T10:38:08.812Z,5.23
2023-01-30T10:40:42.112Z,5.95
2023-01-30T10:43:21.101Z,5.40
2023-01-30T10:46:02.476Z,4.87
2023-01-30T10:48:50.070Z,5.60
2023-01-30T10:51:29.498Z,6.22
2023-01-30T10:54:02.014Z,6.22
2023-01-30T10:56:37.586Z,5.10
2023-01-30T10:59:22.783Z,5.88
2023-01-30T11:01:58.317Z,6.20
2023-01-30T11:04:31.449Z,5.90
2023-01-30T11:07:01.878Z,5.88
2023-01-30T11:09:44.622Z,7.35
2023-01-30T11:12:13.441Z,6.05
2023-01-30T11:15:11.727Z,5.90
2023-01-30T11:17:42.936Z,5.70
2023-01-30T11:20:17.331Z,6.60
2023-01-30T11:22:48.209Z,5.72
2023-01-30T11:25:18.534Z,6.20
2023-01-30T11:27:54.855Z,6.47
2023-01-30T11:30:29.373Z,6.70
2023-01-30T11:33:08.115Z,5.90
2023-01-30T11:35:41.075Z,6.53
2023-01-30T11:38:21.259Z,6.65
2023-01-30T11:40:49.271Z,5.93
2023-01-30T11:43:17.278Z,5.37
2023-01-30T11:45:49.823Z,5.93
2023-01-30T11:48:33.281Z,7.57
2023-01-30T11:51:11.829Z,6.90
2023-01-30T11:53:42.960Z,5.93
2023-01-30T11:56:17.247Z,6.25
2023-01-30T11:58:50.289Z,6.70
2023-01-30T12:01:19.693Z,6.07
2023-01-30T12:03:52.521Z,6.30
2023-01-30T12:06:25.252Z,7.35
2023-01-30T12:08:56.043Z,7.13
2023-01-30T12:11:32.948Z,6.38
2023-01-30T12:14:18.862Z,6.07
2023-01-30T12:17:03.626Z,6.43
2023-01-30T12:19:41.089Z,6.88
2023-01-30T12:22:19.438Z,6.43
2023-01-30T12:24:57.021Z,6.60
2023-01-30T12:27:32.354Z,6.38
2023-01-30T12:30:05.902Z,7.00
2023-01-30T12:32:36.341Z,6.22
2023-01-30T12:35:16.753Z,5.40
2023-01-30T12:38:02.323Z,6.28
2023-01-30T12:40:45.976Z,7.00
2023-01-30T12:43:39.786Z,6.78
2023-01-30T12:46:26.893Z,6.88
2023-01-30T12:49:11.328Z,6.57
2023-01-30T12:51:53.519Z,6.55
2023-01-30T12:54:33.269Z,5.80
2023-01-30T12:57:15.644Z,6.30
2023-01-30T12:59:53.343Z,5.77
2023-01-30T13:02:45.156Z,6.40
2023-01-30T13:05:27.954Z,7.05
2023-01-30T13:08:09.499Z,7.72
2023-01-30T13:10:44.944Z,6.25
2023-01-30T13:13:19.589Z,5.82
2023-01-30T13:15:56.315Z,6.53
2023-01-30T13:18:28.080Z,6.60
2023-01-30T13:21:05.502Z,6.72
2023-01-30T13:23:44.604Z,6.50
2023-01-30T13:26:15.916Z,7.97
2023-01-30T13:28:46.665Z,7.57
2023-01-30T13:31:19.342Z,7.13
2023-01-30T13:33:50.300Z,6.30
2023-01-30T13:36:24.530Z,6.20
2023-01-30T13:39:00.987Z,7.15
2023-01-30T13:41:34.882Z,6.70
2023-01-30T13:44:08.265Z,8.02
2023-01-30T13:46:40.196Z,6.43
2023-01-30T13:49:14.512Z,6.32
2023-01-30T13:51:49.545Z,6.10
2023-01-30T13:54:38.725Z,6.10
2023-01-30T13:57:17.137Z,5.63
2023-01-30T14:00:10.802Z,6.53
2023-01-30T14:02:38.974Z,6.63
2023-01-30T14:05:07.176Z,6.55
2023-01-30T14:07:41.855Z,6.60
2023-01-30T14:10:17.257Z,6.68
2023-01-30T14:12:47.765Z,5.57
2023-01-30T14:15:31.816Z,5.60
2023-01-30T14:18:02.411Z,6.10
2023-01-30T14:20:32.051Z,5.18
2023-01-30T14:23:03.490Z,6.88
2023-01-30T14:25:44.431Z,6.35
2023-01-30T14:28:49.479Z,6.60
2023-01-30T14:31:54.625Z,6.40
2023-01-30T14:35:08.469Z,5.70
2023-01-30T14:38:12.650Z,6.90
2023-01-30T14:41:18.383Z,5.40
2023-01-30T14:43:54.400Z,7.38
2023-01-30T14:46:54.248Z,6.33
2023-01-30T14:49:33.382Z,6.13
2023-01-30T14:52:01.935Z,6.40
2023-01-30T14:54:44.377Z,5.45
2023-01-30T14:57:33.009Z,6.13
2023-01-30T15:00:15.891Z,5.43
2023-01-30T15:02:52.346Z,6.15
2023-01-30T15:05:26.438Z,6.63
2023-01-30T15:07:59.371Z,6.95
2023-01-30T15:10:48.258Z,5.32
2023-01-30T15:13:48.934Z,5.45
2023-01-30T15:16:37.715Z,5.80
2023-01-30T15:19:22.429Z,5.90
2023-01-30T15:22:01.585Z,6.18
2023-01-30T15:24:49.549Z,6.75
2023-01-30T15:27:23.776Z,5.72
2023-01-30T15:30:05.511Z,5.90
2023-01-30T15:32:35.475Z,5.60
2023-01-30T15:35:20.805Z,5.75
2023-01-30T15:37:50.775Z,6.28
2023-01-30T15:40:25.004Z,6.50
2023-01-30T15:42:58.425Z,6.57
2023-01-30T15:45:34.436Z,6.60
2023-01-30T15:48:23.628Z,6.00
2023-01-30T15:50:54.754Z,6.20
2023-01-30T15:53:28.913Z,6.72
2023-01-30T15:55:57.260Z,5.63
2023-01-30T15:58:26.075Z,6.30
2023-01-30T16:00:57.560Z,6.03
2023-01-30T16:03:29.705Z,6.70
2023-01-30T16:05:59.017Z,7.28
2023-01-30T16:08:28.471Z,6.50
2023-01-30T16:10:56.770Z,6.47
2023-01-30T16:13:25.350Z,6.30
2023-01-30T16:15:58.958Z,6.30
2023-01-30T16:18:33.263Z,6.25
2023-01-30T16:21:06.554Z,6.13
2023-01-30T16:23:37.666Z,6.72
2023-01-30T16:26:07.603Z,7.07
2023-01-30T16:28:35.807Z,6.32
2023-01-30T16:31:05.933Z,6.20
2023-01-30T16:33:37.108Z,5.65
2023-01-30T16:36:06.886Z,6.15
2023-01-30T16:38:42.789Z,5.55
2023-01-30T16:41:33.574Z,5.68
2023-01-30T16:44:20.581Z,6.03
2023-01-30T16:46:55.496Z,6.00
2023-01-30T16:49:30.103Z,6.00
2023-01-30T16:52:04.680Z,5.68
2023-01-30T16:54:34.860Z,5.72
2023-01-30T16:57:03.914Z,5.90
2023-01-30T16:59:33.898Z,6.13
2023-01-30T17:02:04.665Z,5.93
2023-01-30T17:04:41.313Z,5.85
2023-01-30T17:07:33.786Z,6.40
2023-01-30T17:10:02.082Z,5.20
2023-01-30T17:12:49.407Z,5.22
2023-01-30T17:15:34.532Z,5.50
2023-01-30T17:18:03.200Z,5.67
2023-01-30T17:20:42.058Z,6.53
2023-01-30T17:23:12.742Z,6.70
2023-01-30T17:25:44.061Z,5.38
2023-01-30T17:28:18.663Z,6.80
2023-01-30T17:30:46.729Z,5.50
2023-01-30T17:33:14.706Z,6.88
2023-01-30T17:35:44.559Z,5.57
2023-01-30T17:38:13.283Z,6.20
2023-01-30T17:40:41.502Z,7.90
2023-01-30T17:43:11.619Z,6.90
2023-01-30T17:45:39.653Z,6.40
2023-01-30T17:48:08.393Z,6.00
2023-01-30T17:50:36.629Z,5.90
2023-01-30T17:53:06.417Z,6.20
2023-01-30T17:55:36.184Z,6.00
2023-01-30T17:58:04.686Z,7.55
2023-01-30T18:00:32.638Z,6.70
2023-01-30T18:03:00.643Z,5.10
2023-01-30T18:05:28.683Z,6.00
2023-01-30T18:07:56.621Z,6.00
2023-01-30T18:10:26.035Z,5.40
2023-01-30T18:12:54.088Z,5.10
2023-01-30T18:15:22.164Z,7.03
2023-01-30T18:17:54.899Z,5.80
2023-01-30T18:20:23.571Z,5.68
2023-01-30T18:22:51.499Z,5.30
2023-01-30T18:25:19.732Z,4.72
2023-01-30T18:27:49.303Z,5.88
2023-01-30T18:30:18.264Z,5.50
2023-01-30T18:32:53.573Z,5.38
2023-01-30T18:35:22.632Z,5.97
2023-01-30T18:37:51.268Z,6.07
2023-01-30T18:40:20.437Z,5.40
2023-01-30T18:42:50.211Z,4.10
2023-01-30T18:45:18.346Z,4.55
2023-01-30T18:47:46.358Z,4.20
2023-01-30T18:50:14.356Z,3.60
2023-01-30T18:52:42.450Z,4.45
2023-01-30T18:55:10.883Z,5.30
2023-01-30T18:57:38.841Z,4.68
2023-01-30T19:00:09.710Z,3.92
2023-01-30T19:02:37.948Z,4.88
2023-01-30T19:05:06.545Z,4.78
2023-01-30T19:07:36.377Z,4.50
2023-01-30T19:10:04.741Z,4.47
2023-01-30T19:12:50.359Z,5.20
2023-01-30T19:15:19.664Z,6.10
2023-01-30T19:17:47.662Z,4.43
2023-01-30T19:20:15.713Z,4.37
2023-01-30T19:22:43.772Z,4.97
2023-01-30T19:25:11.798Z,4.95
2023-01-30T19:27:39.815Z,5.75
2023-01-30T19:30:09.372Z,6.50
2023-01-30T19:32:38.730Z,5.78
2023-01-30T19:35:07.823Z,5.70
2023-01-30T19:37:40.256Z,5.18
2023-01-30T19:40:12.101Z,5.00
2023-01-30T19:42:43.877Z,5.20
2023-01-30T19:45:13.506Z,5.75
2023-01-30T19:47:42.869Z,4.90
2023-01-30T19:50:12.193Z,5.70
2023-01-30T19:52:40.873Z,5.78
2023-01-30T19:55:09.626Z,5.25
2023-01-30T19:57:39.533Z,5.45
2023-01-30T20:00:08.946Z,4.70
2023-01-30T20:02:37.725Z,4.45
2023-01-30T20:05:07.908Z,4.47
2023-01-30T20:07:37.433Z,7.00
2023-01-30T20:10:06.216Z,6.57
2023-01-30T20:12:35.652Z,5.97
2023-01-30T20:15:04.860Z,6.00
2023-01-30T20:17:33.411Z,5.50
2023-01-30T20:20:01.460Z,5.78
2023-01-30T20:22:30.792Z,4.70
2023-01-30T20:24:58.804Z,6.30
2023-01-30T20:27:26.810Z,6.68
2023-01-30T20:29:54.873Z,5.90
2023-01-30T20:32:22.905Z,6.55
2023-01-30T20:34:50.845Z,6.35
2023-01-30T20:37:19.052Z,6.90
2023-01-30T20:39:50.948Z,5.73
2023-01-30T20:42:19.769Z,7.38
2023-01-30T20:44:48.210Z,7.40
2023-01-30T20:47:16.254Z,5.97
2023-01-30T20:49:44.505Z,6.50
2023-01-30T20:52:12.516Z,5.43
2023-01-30T20:54:40.590Z,5.75
2023-01-30T20:57:10.683Z,4.75
2023-01-30T20:59:38.704Z,5.82
2023-01-30T21:02:06.654Z,6.63
2023-01-30T21:04:34.679Z,6.32
2023-01-30T21:07:02.653Z,6.20
2023-01-30T21:09:30.747Z,5.75
2023-01-30T21:11:58.648Z,5.83
2023-01-30T21:14:28.167Z,5.25
2023-01-30T21:16:56.207Z,5.32
2023-01-30T21:19:24.504Z,5.95
2023-01-30T21:21:54.988Z,6.47
2023-01-30T21:24:25.781Z,5.43
2023-01-30T21:26:54.286Z,5.53
2023-01-30T21:29:25.899Z,5.40
2023-01-30T21:31:56.608Z,5.32
2023-01-30T21:34:24.862Z,5.70
2023-01-30T21:37:06.740Z,5.35
2023-01-30T21:39:52.517Z,5.70
2023-01-30T21:42:37.994Z,4.90
2023-01-30T21:45:07.380Z,4.78
2023-01-30T21:47:37.027Z,5.50
2023-01-30T21:50:05.647Z,5.65
2023-01-30T21:52:33.959Z,4.80
2023-01-30T21:55:02.067Z,5.78
2023-01-30T21:57:30.153Z,5.10
2023-01-30T21:59:58.147Z,5.32
2023-01-30T22:02:26.153Z,5.25
2023-01-30T22:04:55.862Z,5.10
2023-01-30T22:07:23.977Z,5.00
2023-01-30T22:09:51.954Z,5.60
2023-01-30T22:12:19.958Z,5.30
2023-01-30T22:14:47.991Z,5.05
2023-01-30T22:17:16.085Z,4.80
2023-01-30T22:19:44.102Z,5.85
2023-01-30T22:22:13.727Z,4.38
2023-01-30T22:24:41.675Z,5.35
2023-01-30T22:27:09.687Z,6.07
2023-01-30T22:29:37.631Z,5.18
2023-01-30T22:32:06.145Z,5.10
2023-01-30T22:34:35.945Z,5.30
2023-01-30T22:37:04.125Z,5.13
2023-01-30T22:39:33.433Z,5.32
2023-01-30T22:42:01.460Z,5.07
2023-01-30T22:44:29.420Z,6.03
2023-01-30T22:46:57.470Z,5.45
2023-01-30T22:49:25.549Z,4.90
2023-01-30T22:51:53.544Z,5.15
2023-01-30T22:54:21.535Z,4.65
2023-01-30T22:56:54.459Z,4.70
2023-01-30T22:59:22.898Z,5.68
2023-01-30T23:01:51.965Z,5.20
2023-01-30T23:04:21.839Z,4.53
2023-01-30T23:06:51.411Z,5.00
2023-01-30T23:09:21.316Z,5.20
2023-01-30T23:12:05.560Z,4.43
2023-01-30T23:14:35.722Z,4.70
2023-01-30T23:17:25.334Z,4.60
2023-01-30T23:19:52.564Z,4.43
2023-01-30T23:22:20.575Z,4.88
2023-01-30T23:24:49.032Z,4.10
2023-01-30T23:27:17.009Z,4.10
2023-01-30T23:29:46.365Z,4.43
2023-01-30T23:32:14.974Z,5.10
2023-01-30T23:34:43.168Z,4.93
2023-01-30T23:37:11.173Z,3.93
2023-01-30T23:39:39.148Z,4.40
2023-01-30T23:42:07.226Z,4.30
2023-01-30T23:44:35.483Z,4.55
2023-01-30T23:47:04.895Z,4.43
2023-01-30T23:49:32.873Z,4.65
2023-01-30T23:52:00.837Z,4.40
2023-01-30T23:54:29.072Z,4.03
2023-01-30T23:56:57.112Z,4.20
2023-01-30T23:59:25.037Z,4.47
